createdAt,value
2023-04-18T00:00:58.680Z,20.13
2023-04-18T00:03:27.099Z,18.67
2023-04-18T00:05:55.405Z,17.98
2023-04-18T00:08:26.023Z,19.35
2023-04-18T00:10:54.114Z,21.50
2023-04-18T00:13:22.302Z,20.95
2023-04-18T00:15:50.412Z,18.35
2023-04-18T00:18:18.452Z,21.65
2023-04-18T00:20:47.256Z,18.52
2023-04-18T00:23:16.414Z,19.50
2023-04-18T00:25:46.116Z,18.70
2023-04-18T00:28:14.258Z,20.35
2023-04-18T00:30:42.356Z,22.83
2023-04-18T00:33:10.465Z,19.58
2023-04-18T00:35:39.167Z,19.80
2023-04-18T00:38:09.146Z,23.48
2023-04-18T00:40:39.762Z,20.90
2023-04-18T00:43:09.919Z,19.77
2023-04-18T00:45:40.247Z,21.45
2023-04-18T00:48:08.681Z,19.70
2023-04-18T00:50:38.097Z,20.25
2023-04-18T00:53:07.270Z,19.48
2023-04-18T00:55:36.162Z,17.50
2023-04-18T00:58:04.714Z,21.77
2023-04-18T01:00:34.234Z,18.55
2023-04-18T01:03:02.447Z,21.10
2023-04-18T01:05:33.060Z,18.75
2023-04-18T01:08:01.993Z,22.08
2023-04-18T01:10:31.624Z,18.33
2023-04-18T01:13:13.580Z,21.02
2023-04-18T01:15:44.491Z,20.13
2023-04-18T01:18:17.095Z,17.30
2023-04-18T01:20:47.428Z,17.48
2023-04-18T01:23:16.428Z,17.02
2023-04-18T01:25:46.897Z,17.40
2023-04-18T01:28:15.759Z,19.15
2023-04-18T01:30:43.920Z,21.00
2023-04-18T01:33:12.255Z,20.10
2023-04-18T01:35:40.432Z,19.73
2023-04-18T01:38:09.122Z,18.63
2023-04-18T01:40:37.595Z,20.33
2023-04-18T01:43:07.065Z,16.55
2023-04-18T01:45:35.153Z,17.30
2023-04-18T01:48:03.360Z,18.52
2023-04-18T01:50:31.489Z,18.25
2023-04-18T01:52:59.585Z,18.38
2023-04-18T01:55:27.659Z,20.27
2023-04-18T01:57:56.062Z,19.23
2023-04-18T02:00:25.893Z,25.75
2023-04-18T02:02:54.134Z,19.08
2023-04-18T02:05:22.620Z,17.70
2023-04-18T02:07:50.763Z,20.23
2023-04-18T02:10:19.110Z,17.75
2023-04-18T02:12:50.077Z,19.77
2023-04-18T02:15:18.148Z,18.85
2023-04-18T02:17:49.094Z,18.35
2023-04-18T02:20:17.451Z,19.92
2023-04-18T02:22:45.544Z,17.67
2023-04-18T02:25:13.605Z,19.67
2023-04-18T02:27:41.923Z,18.35
2023-04-18T02:30:11.072Z,23.92
2023-04-18T02:32:39.190Z,18.52
2023-04-18T02:35:09.493Z,17.48
2023-04-18T02:37:37.564Z,19.98
2023-04-18T02:40:07.240Z,20.13
2023-04-18T02:42:35.300Z,19.35
2023-04-18T02:45:03.704Z,17.85
2023-04-18T02:47:37.703Z,17.65
2023-04-18T02:50:19.809Z,19.40
2023-04-18T02:52:47.967Z,18.50
2023-04-18T02:55:17.487Z,20.30
2023-04-18T02:57:46.445Z,21.55
2023-04-18T03:00:43.716Z,18.35
2023-04-18T03:03:32.080Z,19.55
2023-04-18T03:06:16.032Z,18.73
2023-04-18T03:08:44.362Z,21.35
2023-04-18T03:11:12.557Z,20.65
2023-04-18T03:13:40.716Z,22.77
2023-04-18T03:16:08.939Z,24.30
2023-04-18T03:18:37.405Z,17.48
2023-04-18T03:21:07.204Z,22.60
2023-04-18T03:23:37.443Z,19.98
2023-04-18T03:26:09.558Z,22.67
2023-04-18T03:28:40.709Z,22.13
2023-04-18T03:31:09.133Z,19.75
2023-04-18T03:33:42.416Z,23.00
2023-04-18T03:36:12.053Z,22.63
2023-04-18T03:38:43.152Z,25.52
2023-04-18T03:41:11.406Z,20.40
2023-04-18T03:43:40.120Z,24.00
2023-04-18T03:46:08.253Z,20.35
2023-04-18T03:48:37.498Z,22.92
2023-04-18T03:51:10.124Z,26.73
2023-04-18T03:53:43.018Z,26.00
2023-04-18T03:56:11.317Z,26.52
2023-04-18T03:58:51.583Z,27.73
2023-04-18T04:01:21.655Z,22.15
2023-04-18T04:03:52.291Z,25.70
2023-04-18T04:06:21.009Z,26.73
2023-04-18T04:08:50.498Z,22.33
2023-04-18T04:11:23.052Z,22.38
2023-04-18T04:13:51.551Z,21.92
2023-04-18T04:16:23.866Z,23.73
2023-04-18T04:18:53.868Z,26.58
2023-04-18T04:21:26.599Z,24.88
2023-04-18T04:23:56.210Z,23.52
2023-04-18T04:26:31.750Z,19.67
2023-04-18T04:29:07.799Z,21.98
2023-04-18T04:31:36.046Z,22.33
2023-04-18T04:34:04.977Z,20.90
2023-04-18T04:36:35.943Z,22.73
2023-04-18T04:39:11.316Z,23.25
2023-04-18T04:41:53.847Z,21.88
2023-04-18T04:44:26.899Z,25.63
2023-04-18T04:46:56.037Z,22.48
2023-04-18T04:49:29.682Z,23.20
2023-04-18T04:51:58.692Z,22.23
2023-04-18T04:54:29.624Z,22.85
2023-04-18T04:56:57.966Z,21.85
2023-04-18T04:59:26.843Z,23.30
2023-04-18T05:01:55.649Z,26.13
2023-04-18T05:04:24.404Z,28.27
2023-04-18T05:06:55.708Z,24.63
2023-04-18T05:09:23.760Z,26.02
2023-04-18T05:11:53.294Z,27.33
2023-04-18T05:14:21.554Z,28.33
2023-04-18T05:16:49.692Z,24.90
2023-04-18T05:19:17.854Z,22.67
2023-04-18T05:21:45.924Z,21.40
2023-04-18T05:24:15.829Z,24.27
2023-04-18T05:26:46.994Z,23.30
2023-04-18T05:29:16.480Z,22.33
2023-04-18T05:31:44.609Z,23.13
2023-04-18T05:34:12.951Z,26.30
2023-04-18T05:36:41.293Z,27.83
2023-04-18T05:39:09.406Z,24.63
2023-04-18T05:41:37.676Z,26.15
2023-04-18T05:44:06.231Z,24.42
2023-04-18T05:46:36.059Z,23.65
2023-04-18T05:49:04.633Z,21.60
2023-04-18T05:51:32.660Z,21.35
2023-04-18T05:54:00.769Z,20.85
2023-04-18T05:56:28.864Z,22.50
2023-04-18T05:58:57.339Z,23.92
2023-04-18T06:01:25.634Z,19.48
2023-04-18T06:03:55.574Z,22.27
2023-04-18T06:06:24.539Z,22.05
2023-04-18T06:08:52.859Z,20.42
2023-04-18T06:11:21.622Z,22.48
2023-04-18T06:13:50.193Z,25.20
2023-04-18T06:16:18.308Z,21.58
2023-04-18T06:18:46.591Z,25.48
2023-04-18T06:21:16.129Z,23.02
2023-04-18T06:23:44.408Z,18.55
2023-04-18T06:26:12.649Z,20.13
2023-04-18T06:28:40.751Z,17.58
2023-04-18T06:31:09.416Z,18.63
2023-04-18T06:33:37.768Z,18.95
2023-04-18T06:36:07.237Z,19.55
2023-04-18T06:38:36.838Z,19.92
2023-04-18T06:41:05.424Z,19.25
2023-04-18T06:43:33.646Z,22.90
2023-04-18T06:46:02.226Z,22.38
2023-04-18T06:48:30.921Z,20.40
2023-04-18T06:50:59.116Z,20.90
2023-04-18T06:53:27.255Z,21.02
2023-04-18T06:55:56.673Z,16.60
2023-04-18T06:58:24.868Z,23.33
2023-04-18T07:00:54.410Z,20.40
2023-04-18T07:03:23.013Z,23.10
2023-04-18T07:05:51.478Z,19.02
2023-04-18T07:08:20.039Z,18.17
2023-04-18T07:10:48.117Z,19.52
2023-04-18T07:13:17.710Z,21.70
2023-04-18T07:15:45.785Z,20.30
2023-04-18T07:18:20.477Z,21.60
2023-04-18T07:20:51.602Z,21.27
2023-04-18T07:23:20.129Z,18.55
2023-04-18T07:25:49.725Z,21.25
2023-04-18T07:28:19.229Z,22.77
2023-04-18T07:30:48.566Z,18.15
2023-04-18T07:33:16.925Z,20.05
2023-04-18T07:35:45.981Z,22.15
2023-04-18T07:38:14.478Z,24.38
2023-04-18T07:40:42.781Z,21.33
2023-04-18T07:43:11.262Z,19.33
2023-04-18T07:45:43.174Z,21.15
2023-04-18T07:48:11.711Z,22.88
2023-04-18T07:50:39.722Z,17.35
2023-04-18T07:53:08.254Z,24.75
2023-04-18T07:55:36.479Z,21.13
2023-04-18T07:58:04.586Z,21.20
2023-04-18T08:00:32.845Z,24.02
2023-04-18T08:03:02.651Z,21.05
2023-04-18T08:05:30.880Z,25.15
2023-04-18T08:07:58.981Z,22.35
2023-04-18T08:10:27.183Z,20.45
2023-04-18T08:12:55.331Z,22.95
2023-04-18T08:15:27.603Z,20.02
2023-04-18T08:17:56.271Z,22.02
2023-04-18T08:20:26.113Z,21.90
2023-04-18T08:23:05.623Z,19.80
2023-04-18T08:25:36.746Z,26.20
2023-04-18T08:28:05.228Z,28.38
2023-04-18T08:30:34.167Z,22.70
2023-04-18T08:33:03.095Z,20.05
2023-04-18T08:35:35.308Z,19.35
2023-04-18T08:38:03.580Z,20.48
2023-04-18T08:40:31.671Z,21.63
2023-04-18T08:43:04.918Z,23.15
2023-04-18T08:45:33.342Z,19.80
2023-04-18T08:48:03.679Z,20.67
2023-04-18T08:50:33.466Z,21.52
2023-04-18T08:53:02.281Z,21.85
2023-04-18T08:55:30.406Z,24.58
2023-04-18T08:57:58.621Z,18.73
2023-04-18T09:00:27.507Z,18.92
2023-04-18T09:02:57.360Z,19.40
2023-04-18T09:05:27.675Z,17.50
2023-04-18T09:07:57.518Z,19.70
2023-04-18T09:10:28.878Z,22.05
2023-04-18T09:12:58.343Z,24.27
2023-04-18T09:15:29.349Z,22.73
2023-04-18T09:17:58.826Z,22.38
2023-04-18T09:20:34.749Z,21.70
2023-04-18T09:23:06.303Z,21.60
2023-04-18T09:25:40.778Z,21.38
2023-04-18T09:28:24.562Z,23.25
2023-04-18T09:30:53.263Z,23.05
2023-04-18T09:33:29.363Z,20.20
2023-04-18T09:36:00.263Z,20.63
2023-04-18T09:38:42.160Z,20.02
2023-04-18T09:41:11.464Z,27.65
2023-04-18T09:43:40.160Z,25.10
2023-04-18T09:46:09.482Z,22.30
2023-04-18T09:48:38.124Z,25.33
2023-04-18T09:51:09.235Z,24.80
2023-04-18T09:53:42.198Z,20.25
2023-04-18T09:56:13.795Z,25.08
2023-04-18T09:58:43.010Z,24.27
2023-04-18T10:01:13.414Z,24.92
2023-04-18T10:03:46.083Z,18.60
2023-04-18T10:06:18.988Z,25.65
2023-04-18T10:08:50.202Z,19.23
2023-04-18T10:11:19.831Z,21.48
2023-04-18T10:13:50.404Z,21.10
2023-04-18T10:16:20.458Z,21.17
2023-04-18T10:18:50.522Z,21.00
2023-04-18T10:21:18.611Z,20.08
2023-04-18T10:23:50.351Z,19.02
2023-04-18T10:26:18.456Z,22.05
2023-04-18T10:28:54.752Z,20.40
2023-04-18T10:31:24.413Z,20.20
2023-04-18T10:34:04.076Z,23.35
2023-04-18T10:36:34.318Z,16.38
2023-04-18T10:39:21.535Z,21.35
2023-04-18T10:41:51.266Z,19.58
2023-04-18T10:44:23.793Z,18.58
2023-04-18T10:47:22.130Z,19.58
2023-04-18T10:49:58.986Z,18.13
2023-04-18T10:52:28.344Z,17.13
2023-04-18T10:55:09.808Z,16.00
2023-04-18T10:57:45.663Z,17.27
2023-04-18T11:00:16.644Z,16.80
2023-04-18T11:02:53.957Z,16.98
2023-04-18T11:05:24.371Z,15.95
2023-04-18T11:07:53.068Z,19.35
2023-04-18T11:10:25.509Z,15.10
2023-04-18T11:12:54.740Z,15.27
2023-04-18T11:15:25.396Z,13.60
2023-04-18T11:17:59.740Z,16.33
2023-04-18T11:20:28.437Z,18.02
2023-04-18T11:22:58.450Z,16.30
2023-04-18T11:25:29.869Z,13.38
2023-04-18T11:28:00.386Z,15.43
2023-04-18T11:30:31.523Z,13.75
2023-04-18T11:33:00.014Z,14.05
2023-04-18T11:35:29.529Z,14.38
2023-04-18T11:37:57.751Z,13.48
2023-04-18T11:40:26.128Z,16.65
2023-04-18T11:42:56.507Z,11.80
2023-04-18T11:45:24.870Z,14.55
2023-04-18T11:47:58.299Z,15.30
2023-04-18T11:50:26.873Z,18.58
2023-04-18T11:52:55.839Z,17.23
2023-04-18T11:55:27.069Z,18.58
2023-04-18T11:57:57.653Z,15.60
2023-04-18T12:00:33.898Z,16.20
2023-04-18T12:03:04.566Z,17.00
2023-04-18T12:05:34.515Z,16.02
2023-04-18T12:08:11.539Z,15.85
2023-04-18T12:10:46.579Z,19.40
2023-04-18T12:13:16.798Z,17.70
2023-04-18T12:15:47.210Z,15.07
2023-04-18T12:18:19.813Z,16.23
2023-04-18T12:20:52.321Z,18.25
2023-04-18T12:23:35.742Z,14.25
2023-04-18T12:26:05.730Z,18.55
2023-04-18T12:28:36.510Z,12.50
2023-04-18T12:31:07.531Z,13.60
2023-04-18T12:33:36.805Z,16.10
2023-04-18T12:36:06.143Z,16.58
2023-04-18T12:38:34.422Z,15.95
2023-04-18T12:41:02.734Z,17.00
2023-04-18T12:43:31.006Z,18.10
2023-04-18T12:46:01.431Z,22.52
2023-04-18T12:48:29.589Z,16.35
2023-04-18T12:50:57.679Z,16.40
2023-04-18T12:53:26.691Z,16.08
2023-04-18T12:55:55.338Z,17.88
2023-04-18T12:58:23.541Z,13.38
2023-04-18T13:00:51.724Z,17.98
2023-04-18T13:03:21.474Z,13.13
2023-04-18T13:05:49.945Z,15.45
2023-04-18T13:08:18.276Z,14.23
2023-04-18T13:10:47.842Z,12.65
2023-04-18T13:13:16.222Z,15.25
2023-04-18T13:15:44.781Z,13.05
2023-04-18T13:18:12.933Z,17.27
2023-04-18T13:20:42.478Z,13.00
2023-04-18T13:23:10.816Z,13.32
2023-04-18T13:25:39.598Z,10.57
2023-04-18T13:28:08.157Z,10.27
2023-04-18T13:30:36.719Z,7.40
2023-04-18T13:33:07.640Z,8.77
2023-04-18T13:35:37.533Z,6.78
2023-04-18T13:38:07.267Z,6.38
2023-04-18T13:40:36.038Z,10.23
2023-04-18T13:43:04.599Z,7.85
2023-04-18T13:45:32.784Z,7.45
2023-04-18T13:48:01.029Z,7.43
2023-04-18T13:50:29.363Z,8.00
2023-04-18T13:52:57.438Z,5.50
2023-04-18T13:55:29.224Z,6.35
2023-04-18T13:57:57.605Z,6.75
2023-04-18T14:00:26.831Z,7.30
2023-04-18T14:02:55.436Z,7.50
2023-04-18T14:05:23.800Z,6.45
2023-04-18T14:07:52.092Z,5.90
2023-04-18T14:10:21.870Z,6.00
2023-04-18T14:12:51.754Z,6.70
2023-04-18T14:15:20.249Z,5.57
2023-04-18T14:17:48.397Z,5.78
2023-04-18T14:20:19.348Z,5.20
2023-04-18T14:22:47.800Z,7.22
2023-04-18T14:25:17.059Z,6.50
2023-04-18T14:27:48.914Z,6.22
2023-04-18T14:30:18.692Z,6.88
2023-04-18T14:32:46.900Z,6.65
2023-04-18T14:35:15.311Z,6.47
2023-04-18T14:37:44.028Z,8.48
2023-04-18T14:40:13.007Z,6.68
2023-04-18T14:42:41.189Z,7.07
2023-04-18T14:45:11.337Z,7.65
2023-04-18T14:47:42.043Z,7.85
2023-04-18T14:50:12.460Z,8.57
2023-04-18T14:52:40.774Z,8.55
2023-04-18T14:55:10.272Z,8.52
2023-04-18T14:57:39.343Z,6.85
2023-04-18T15:00:11.039Z,7.97
2023-04-18T15:02:40.943Z,7.43
2023-04-18T15:05:10.288Z,7.63
2023-04-18T15:07:38.527Z,7.07
2023-04-18T15:10:08.492Z,7.45
2023-04-18T15:12:36.695Z,8.02
2023-04-18T15:15:05.816Z,7.15
2023-04-18T15:17:33.974Z,7.82
2023-04-18T15:20:07.310Z,6.50
2023-04-18T15:22:35.895Z,6.63
2023-04-18T15:25:05.138Z,6.05
2023-04-18T15:27:33.273Z,5.95
2023-04-18T15:30:02.386Z,7.95
2023-04-18T15:32:31.113Z,7.22
2023-04-18T15:34:59.623Z,7.05
2023-04-18T15:37:29.128Z,7.53
2023-04-18T15:39:57.515Z,7.85
2023-04-18T15:42:25.942Z,9.30
2023-04-18T15:44:54.090Z,9.35
2023-04-18T15:47:22.552Z,13.00
2023-04-18T15:49:50.754Z,7.80
2023-04-18T15:52:19.168Z,9.75
2023-04-18T15:54:48.743Z,8.63
2023-04-18T15:57:17.318Z,8.90
2023-04-18T15:59:45.514Z,8.05
2023-04-18T16:02:13.983Z,9.55
2023-04-18T16:04:42.291Z,7.30
2023-04-18T16:07:10.639Z,9.38
2023-04-18T16:09:38.856Z,7.85
2023-04-18T16:12:34.029Z,9.20
2023-04-18T16:15:02.221Z,8.88
2023-04-18T16:17:30.751Z,9.77
2023-04-18T16:19:59.033Z,9.10
2023-04-18T16:22:27.353Z,10.57
2023-04-18T16:24:55.731Z,10.20
2023-04-18T16:27:23.960Z,11.13
2023-04-18T16:29:54.161Z,11.10
2023-04-18T16:32:22.536Z,9.40
2023-04-18T16:34:50.676Z,8.80
2023-04-18T16:37:19.184Z,9.20
2023-04-18T16:39:47.395Z,12.10
2023-04-18T16:42:16.022Z,8.63
2023-04-18T16:44:45.206Z,9.82
2023-04-18T16:47:14.849Z,8.43
2023-04-18T16:49:43.677Z,8.60
2023-04-18T16:52:11.856Z,8.75
2023-04-18T16:54:40.617Z,7.55
2023-04-18T16:57:08.920Z,10.15
2023-04-18T16:59:37.381Z,8.15
2023-04-18T17:02:05.683Z,8.60
2023-04-18T17:04:35.500Z,8.68
2023-04-18T17:07:03.912Z,10.48
2023-04-18T17:09:32.466Z,9.68
2023-04-18T17:12:01.949Z,10.75
2023-04-18T17:14:33.314Z,8.85
2023-04-18T17:17:01.524Z,8.27
2023-04-18T17:19:29.717Z,9.60
2023-04-18T17:21:59.372Z,9.93
2023-04-18T17:24:27.490Z,12.52
2023-04-18T17:26:57.851Z,8.48
2023-04-18T17:29:26.584Z,8.10
2023-04-18T17:31:55.041Z,8.75
2023-04-18T17:34:23.298Z,8.10
2023-04-18T17:36:51.539Z,9.25
2023-04-18T17:39:21.043Z,10.73
2023-04-18T17:41:49.190Z,8.85
2023-04-18T17:44:17.559Z,9.25
2023-04-18T17:46:47.043Z,8.25
2023-04-18T17:49:16.877Z,7.93
2023-04-18T17:51:45.000Z,8.57
2023-04-18T17:54:13.721Z,9.23
2023-04-18T17:56:43.930Z,8.10
2023-04-18T17:59:12.241Z,9.65
2023-04-18T18:01:41.159Z,8.85
2023-04-18T18:04:09.488Z,7.38
2023-04-18T18:06:37.730Z,9.07
2023-04-18T18:09:06.549Z,11.27
2023-04-18T18:11:34.863Z,9.07
2023-04-18T18:14:04.420Z,10.00
2023-04-18T18:16:32.869Z,11.00
2023-04-18T18:19:01.128Z,13.02
2023-04-18T18:21:29.390Z,9.57
2023-04-18T18:24:00.508Z,10.30
2023-04-18T18:26:28.854Z,8.88
2023-04-18T18:28:57.126Z,10.10
2023-04-18T18:31:27.040Z,9.90
2023-04-18T18:33:55.355Z,11.07
2023-04-18T18:36:23.738Z,14.73
2023-04-18T18:38:52.098Z,13.40
2023-04-18T18:41:22.604Z,11.13
2023-04-18T18:44:12.891Z,14.50
2023-04-18T18:46:43.373Z,13.30
2023-04-18T18:49:11.848Z,12.50
2023-04-18T18:51:40.959Z,10.25
2023-04-18T18:54:09.185Z,12.30
2023-04-18T18:56:39.014Z,10.50
2023-04-18T18:59:07.156Z,11.50
2023-04-18T19:01:35.847Z,10.38
2023-04-18T19:04:06.378Z,11.93
2023-04-18T19:06:35.351Z,9.65
2023-04-18T19:09:55.208Z,10.50
2023-04-18T19:12:23.616Z,10.15
2023-04-18T19:14:52.015Z,10.60
2023-04-18T19:17:21.989Z,12.25
2023-04-18T19:19:52.168Z,11.05
2023-04-18T19:22:20.376Z,10.73
2023-04-18T19:24:49.358Z,10.50
2023-04-18T19:27:20.003Z,12.68
2023-04-18T19:29:56.707Z,14.48
2023-04-18T19:32:35.425Z,13.30
2023-04-18T19:35:13.572Z,16.48
2023-04-18T19:37:51.680Z,11.18
2023-04-18T19:40:28.664Z,10.20
2023-04-18T19:43:00.908Z,15.48
2023-04-18T19:45:37.009Z,11.70
2023-04-18T19:48:12.312Z,11.82
2023-04-18T19:50:47.681Z,12.15
2023-04-18T19:53:24.098Z,10.57
2023-04-18T19:56:00.288Z,13.98
2023-04-18T19:58:47.521Z,14.90
2023-04-18T20:01:20.817Z,12.30
2023-04-18T20:03:55.499Z,11.73
2023-04-18T20:06:33.013Z,13.40
2023-04-18T20:09:04.114Z,12.82
2023-04-18T20:11:36.689Z,13.13
2023-04-18T20:14:12.449Z,13.82
2023-04-18T20:16:42.912Z,12.93
2023-04-18T20:19:18.203Z,10.38
2023-04-18T20:21:53.688Z,12.95
2023-04-18T20:24:29.432Z,14.43
2023-04-18T20:27:05.469Z,12.90
2023-04-18T20:29:40.962Z,11.38
2023-04-18T20:32:14.992Z,13.13
2023-04-18T20:34:45.827Z,11.68
2023-04-18T20:37:21.121Z,14.27
2023-04-18T20:39:53.944Z,11.52
2023-04-18T20:42:27.289Z,11.93
2023-04-18T20:45:00.157Z,13.32
2023-04-18T20:47:33.492Z,13.40
2023-04-18T20:50:09.664Z,13.55
2023-04-18T20:52:43.029Z,15.45
2023-04-18T20:55:11.797Z,13.55
2023-04-18T20:57:39.973Z,12.80
2023-04-18T21:00:10.562Z,14.60
2023-04-18T21:02:41.231Z,11.77
2023-04-18T21:05:09.839Z,14.25
2023-04-18T21:07:38.177Z,12.40
2023-04-18T21:10:11.421Z,13.60
2023-04-18T21:12:39.585Z,15.38
2023-04-18T21:15:09.206Z,13.88
2023-04-18T21:17:37.477Z,13.65
2023-04-18T21:20:08.246Z,14.55
2023-04-18T21:22:36.488Z,16.98
2023-04-18T21:25:05.130Z,13.85
2023-04-18T21:27:34.905Z,15.07
2023-04-18T21:30:04.932Z,14.45
2023-04-18T21:32:33.409Z,14.65
2023-04-18T21:35:01.748Z,12.23
2023-04-18T21:37:29.858Z,13.80
2023-04-18T21:39:57.964Z,14.18
2023-04-18T21:42:26.243Z,15.10
2023-04-18T21:44:56.141Z,14.60
2023-04-18T21:47:25.931Z,15.27
2023-04-18T21:49:54.191Z,13.38
2023-04-18T21:52:22.495Z,17.38
2023-04-18T21:54:50.819Z,19.80
2023-04-18T21:57:19.144Z,14.82
2023-04-18T21:59:47.693Z,13.77
2023-04-18T22:02:17.259Z,12.43
2023-04-18T22:04:45.644Z,15.20
2023-04-18T22:07:15.518Z,19.98
2023-04-18T22:09:44.905Z,15.60
2023-04-18T22:12:13.956Z,15.02
2023-04-18T22:14:42.323Z,15.02
2023-04-18T22:17:10.417Z,16.95
2023-04-18T22:19:41.560Z,15.65
2023-04-18T22:22:12.357Z,14.50
2023-04-18T22:24:40.563Z,14.32
2023-04-18T22:27:08.730Z,12.35
2023-04-18T22:29:36.965Z,14.40
2023-04-18T22:32:05.390Z,12.90
2023-04-18T22:34:33.607Z,14.30
2023-04-18T22:37:03.052Z,14.02
2023-04-18T22:39:31.993Z,16.38
2023-04-18T22:42:00.078Z,17.10
2023-04-18T22:44:28.548Z,16.92
2023-04-18T22:46:56.850Z,14.07
2023-04-18T22:49:25.395Z,15.25
2023-04-18T22:51:54.610Z,13.45
2023-04-18T22:54:24.336Z,14.43
2023-04-18T22:56:52.833Z,16.75
2023-04-18T22:59:20.947Z,14.75
2023-04-18T23:01:49.054Z,16.83
2023-04-18T23:04:17.662Z,18.25
2023-04-18T23:06:46.023Z,17.50
2023-04-18T23:09:14.428Z,16.73
2023-04-18T23:11:43.976Z,14.75
2023-04-18T23:14:12.453Z,16.58
2023-04-18T23:16:42.558Z,15.48
2023-04-18T23:19:11.892Z,18.70
2023-04-18T23:21:40.064Z,17.40
2023-04-18T23:24:08.890Z,18.98
2023-04-18T23:26:39.635Z,15.52
2023-04-18T23:29:09.380Z,13.52
2023-04-18T23:31:37.691Z,16.70
2023-04-18T23:34:08.886Z,18.90
2023-04-18T23:36:37.268Z,17.75
2023-04-18T23:39:05.423Z,14.20
2023-04-18T23:41:33.839Z,16.05
2023-04-18T23:44:02.260Z,16.33
2023-04-18T23:46:32.593Z,18.10
2023-04-18T23:49:02.010Z,14.93
2023-04-18T23:51:30.127Z,16.95
2023-04-18T23:53:58.418Z,14.48
2023-04-18T23:56:26.470Z,15.93
2023-04-18T23:58:54.983Z,15.57
